createdAt,value
2023-04-09T05:09:29.570Z,33.50
2023-04-09T05:51:17.275Z,35.60
2023-04-09T05:59:55.285Z,37.00
2023-04-09T06:00:57.382Z,36.83
2023-04-09T06:01:59.350Z,32.65
2023-04-09T06:03:02.522Z,38.45
2023-04-09T06:04:05.027Z,34.58
2023-04-09T06:05:07.482Z,35.88
2023-04-09T06:06:09.373Z,33.80
2023-04-09T06:07:11.482Z,32.30
2023-04-09T06:08:14.186Z,34.85
2023-04-09T06:09:16.711Z,34.05
2023-04-09T06:10:18.497Z,34.85
2023-04-09T06:11:24.826Z,33.67
2023-04-09T06:12:38.253Z,32.50
2023-04-09T06:14:05.918Z,36.00
2023-04-09T06:15:11.433Z,36.10
2023-04-09T06:16:13.828Z,37.38
2023-04-09T06:17:18.954Z,32.85
2023-04-09T06:18:24.903Z,31.42
2023-04-09T06:19:27.075Z,39.63
2023-04-09T06:20:29.088Z,39.97
2023-04-09T06:21:31.537Z,37.78
2023-04-09T06:22:34.084Z,32.97
2023-04-09T06:23:37.379Z,33.95
2023-04-09T06:24:39.345Z,31.25
2023-04-09T06:25:41.484Z,32.20
2023-04-09T06:26:43.288Z,31.90
2023-04-09T06:27:46.550Z,35.03
2023-04-09T06:28:48.358Z,30.80
2023-04-09T06:29:50.311Z,29.00
2023-04-09T06:30:54.227Z,36.97
2023-04-09T06:32:51.002Z,36.10
2023-04-09T06:34:04.271Z,31.23
2023-04-09T06:35:21.732Z,34.22
2023-04-09T06:36:24.663Z,34.80
2023-04-09T06:37:26.558Z,30.48
2023-04-09T06:38:28.730Z,32.90
2023-04-09T06:39:30.899Z,31.75
2023-04-09T06:40:33.147Z,32.67
2023-04-09T06:41:37.971Z,34.47
2023-04-09T06:42:52.368Z,34.90
2023-04-09T06:44:03.584Z,29.55
2023-04-09T06:45:08.979Z,32.00
2023-04-09T06:46:11.341Z,34.33
2023-04-09T06:47:13.309Z,31.35
2023-04-09T06:48:17.312Z,34.95
2023-04-09T06:49:19.164Z,29.73
2023-04-09T06:50:21.036Z,36.35
2023-04-09T06:51:22.911Z,32.65
2023-04-09T06:52:24.865Z,29.23
2023-04-09T06:53:27.164Z,32.80
2023-04-09T06:54:29.289Z,29.80
2023-04-09T06:55:36.165Z,31.63
2023-04-09T06:56:38.460Z,27.30
2023-04-09T06:57:40.998Z,31.05
2023-04-09T06:58:43.576Z,35.65
2023-04-09T06:59:49.062Z,28.10
2023-04-09T07:00:52.088Z,27.48
2023-04-09T07:01:54.792Z,36.00
2023-04-09T07:02:58.385Z,27.80
2023-04-09T07:04:03.793Z,29.70
2023-04-09T07:05:06.106Z,32.15
2023-04-09T07:06:07.988Z,29.48
2023-04-09T07:07:09.966Z,28.23
2023-04-09T07:08:13.110Z,34.15
2023-04-09T07:09:15.664Z,29.65
2023-04-09T07:10:19.632Z,33.35
2023-04-09T07:11:21.616Z,32.55
2023-04-09T07:12:30.564Z,32.42
2023-04-09T07:13:33.356Z,32.03
2023-04-09T07:14:37.103Z,35.78
2023-04-09T07:15:42.560Z,28.92
2023-04-09T07:16:46.549Z,30.35
2023-04-09T07:17:48.754Z,31.17
2023-04-09T07:18:52.868Z,34.42
2023-04-09T07:19:54.799Z,27.77
2023-04-09T07:20:56.656Z,34.90
2023-04-09T07:21:58.598Z,28.55
2023-04-09T07:23:01.158Z,26.83
2023-04-09T07:24:03.002Z,28.00
2023-04-09T07:26:21.417Z,30.35
2023-04-09T07:27:30.427Z,29.85
2023-04-09T07:29:34.368Z,33.00
2023-04-09T07:30:36.272Z,27.20
2023-04-09T07:31:41.938Z,31.75
2023-04-09T07:32:44.240Z,30.75
2023-04-09T07:33:48.394Z,30.27
2023-04-09T07:34:54.639Z,26.08
2023-04-09T07:35:56.883Z,31.63
2023-04-09T07:36:58.837Z,33.47
2023-04-09T07:38:01.173Z,33.85
2023-04-09T07:39:03.015Z,34.83
2023-04-09T07:40:06.097Z,31.90
2023-04-09T07:41:43.068Z,31.73
2023-04-09T07:42:45.205Z,32.35
2023-04-09T07:43:47.525Z,34.95
2023-04-09T07:44:49.862Z,26.63
2023-04-09T07:45:52.972Z,33.15
2023-04-09T07:50:30.023Z,30.80
2023-04-09T07:51:36.524Z,32.60
2023-04-09T07:52:39.198Z,26.77
2023-04-09T07:53:48.104Z,35.95
2023-04-09T07:55:37.896Z,25.75
2023-04-09T07:56:45.949Z,29.77
2023-04-09T08:04:51.443Z,26.45
2023-04-09T08:05:57.851Z,27.33
2023-04-09T08:06:59.958Z,20.83
2023-04-09T08:08:01.920Z,29.83
2023-04-09T08:09:32.685Z,28.75
2023-04-09T08:10:34.683Z,24.10
2023-04-09T08:11:40.155Z,26.08
2023-04-09T08:14:30.710Z,26.33
2023-04-09T08:15:33.595Z,27.90
2023-04-09T08:16:39.283Z,26.25
2023-04-09T08:17:50.066Z,21.52
2023-04-09T08:19:01.802Z,23.08
2023-04-09T08:20:06.949Z,24.63
2023-04-09T08:21:10.458Z,24.15
2023-04-09T08:22:14.412Z,23.08
2023-04-09T08:23:16.685Z,22.40
2023-04-09T08:24:20.981Z,28.45
2023-04-09T08:25:25.047Z,22.25
2023-04-09T08:26:27.496Z,29.25
2023-04-09T08:27:33.985Z,23.17
2023-04-09T08:28:36.737Z,22.98
2023-04-09T08:29:40.745Z,22.20
2023-04-09T08:30:42.939Z,21.33
2023-04-09T08:31:46.318Z,25.58
2023-04-09T08:32:49.313Z,19.70
2023-04-09T08:33:53.757Z,24.30
2023-04-09T08:34:55.814Z,21.20
2023-04-09T08:35:58.244Z,23.33
2023-04-09T08:37:00.615Z,24.05
2023-04-09T08:38:05.420Z,24.10
2023-04-09T08:39:36.878Z,22.98
2023-04-09T08:40:39.956Z,20.25
2023-04-09T08:41:45.705Z,19.98
2023-04-09T08:42:59.625Z,21.35
2023-04-09T08:44:30.526Z,20.35
2023-04-09T08:45:33.599Z,24.15
2023-04-09T08:46:38.482Z,21.10
2023-04-09T08:49:02.834Z,22.92
2023-04-09T08:50:06.376Z,22.02
2023-04-09T08:55:37.528Z,21.15
2023-04-09T08:56:39.665Z,28.25
2023-04-09T08:57:43.029Z,21.15
2023-04-09T08:58:47.008Z,23.70
2023-04-09T08:59:53.612Z,19.90
2023-04-09T09:00:55.944Z,22.55
2023-04-09T09:02:08.942Z,21.25
2023-04-09T09:03:19.878Z,20.65
2023-04-09T09:04:22.088Z,23.67
2023-04-09T09:05:40.770Z,22.15
2023-04-09T09:06:42.961Z,22.63
2023-04-09T09:07:55.421Z,19.77
2023-04-09T09:09:19.289Z,21.52
2023-04-09T09:10:42.314Z,21.38
2023-04-09T09:11:50.427Z,22.40
2023-04-09T09:12:52.559Z,22.58
2023-04-09T09:13:59.325Z,17.67
2023-04-09T09:15:04.969Z,19.88
2023-04-09T09:16:17.166Z,20.40
2023-04-09T09:17:20.133Z,22.33
2023-04-09T09:18:44.579Z,24.05
2023-04-09T09:19:46.817Z,20.55
2023-04-09T09:20:48.922Z,25.92
2023-04-09T09:22:06.587Z,22.23
2023-04-09T09:23:09.018Z,21.55
2023-04-09T09:24:18.138Z,25.83
2023-04-09T09:25:24.976Z,27.55
2023-04-09T09:26:30.360Z,20.08
2023-04-09T09:27:37.692Z,23.55
2023-04-09T09:28:49.484Z,21.30
2023-04-09T09:29:53.922Z,21.85
2023-04-09T09:31:08.633Z,24.20
2023-04-09T09:32:13.872Z,23.17
2023-04-09T09:33:19.063Z,19.58
2023-04-09T09:34:27.303Z,21.33
2023-04-09T09:35:31.259Z,19.63
2023-04-09T09:36:35.501Z,22.80
2023-04-09T09:37:38.365Z,20.77
2023-04-09T09:38:57.691Z,20.95
2023-04-09T09:40:01.598Z,19.02
2023-04-09T09:41:21.301Z,22.33
2023-04-09T09:42:31.205Z,20.30
2023-04-09T09:43:42.831Z,21.30
2023-04-09T09:44:54.369Z,19.75
2023-04-09T09:46:00.877Z,17.95
2023-04-09T09:47:04.963Z,20.42
2023-04-09T09:48:07.796Z,20.23
2023-04-09T09:49:19.773Z,17.02
2023-04-09T09:50:25.920Z,20.75
2023-04-09T09:51:29.853Z,20.50
2023-04-09T09:52:31.950Z,22.17
2023-04-09T09:53:36.901Z,20.23
2023-04-09T09:54:48.175Z,23.00
2023-04-09T09:55:57.563Z,21.48
2023-04-09T09:57:06.041Z,22.75
2023-04-09T09:58:23.988Z,18.95
2023-04-09T09:59:32.280Z,19.00
2023-04-09T10:00:37.421Z,18.52
2023-04-09T10:01:41.418Z,21.42
2023-04-09T10:02:57.622Z,16.77
2023-04-09T10:04:03.038Z,18.40
2023-04-09T10:05:09.057Z,18.88
2023-04-09T10:06:14.711Z,19.17
2023-04-09T10:07:17.649Z,21.23
2023-04-09T10:08:26.838Z,22.80
2023-04-09T10:09:32.932Z,22.83
2023-04-09T10:10:36.815Z,22.45
2023-04-09T10:11:42.817Z,22.33
2023-04-09T10:12:45.763Z,24.08
2023-04-09T10:13:54.772Z,20.42
2023-04-09T10:15:04.443Z,23.83
2023-04-09T10:16:09.369Z,22.92
2023-04-09T10:17:12.161Z,20.42
2023-04-09T10:18:16.253Z,22.75
2023-04-09T10:19:24.304Z,23.25
2023-04-09T10:20:42.096Z,25.70
2023-04-09T10:22:24.197Z,21.98
2023-04-09T10:23:39.890Z,23.30
2023-04-09T10:24:42.596Z,20.73
2023-04-09T10:25:45.132Z,21.58
2023-04-09T10:26:48.243Z,21.42
2023-04-09T10:28:02.631Z,22.95
2023-04-09T10:29:12.293Z,20.35
2023-04-09T10:30:36.896Z,24.42
2023-04-09T10:32:33.240Z,20.55
2023-04-09T10:33:38.244Z,22.48
2023-04-09T10:34:54.382Z,21.67
2023-04-09T10:36:05.648Z,22.63
2023-04-09T10:37:15.003Z,22.15
2023-04-09T10:38:42.172Z,31.25
2023-04-09T10:39:57.102Z,23.63
2023-04-09T10:42:33.125Z,27.10
2023-04-09T10:43:40.528Z,25.50
2023-04-09T10:44:42.918Z,29.35
2023-04-09T10:45:47.315Z,24.17
2023-04-09T10:46:53.969Z,28.88
2023-04-09T10:47:56.855Z,23.30
2023-04-09T10:50:33.546Z,25.02
2023-04-09T10:51:39.147Z,23.95
2023-04-09T10:52:44.651Z,21.05
2023-04-09T10:55:30.723Z,23.48
2023-04-09T10:56:34.189Z,20.13
2023-04-09T10:57:36.785Z,20.27
2023-04-09T10:58:44.878Z,22.02
2023-04-09T10:59:56.792Z,22.77
2023-04-09T11:01:07.175Z,23.25
2023-04-09T11:02:21.505Z,23.52
2023-04-09T11:03:32.007Z,21.05
2023-04-09T11:06:22.319Z,20.80
2023-04-09T11:07:26.314Z,24.98
2023-04-09T11:08:34.149Z,27.30
2023-04-09T11:09:42.121Z,24.77
2023-04-09T11:10:51.174Z,23.30
2023-04-09T11:11:54.317Z,23.30
2023-04-09T11:12:56.303Z,23.52
2023-04-09T11:14:01.971Z,20.17
2023-04-09T11:15:06.387Z,22.60
2023-04-09T11:16:09.694Z,22.48
2023-04-09T11:17:13.247Z,23.92
2023-04-09T11:18:26.962Z,21.38
2023-04-09T11:19:30.572Z,22.60
2023-04-09T11:20:34.674Z,21.15
2023-04-09T11:21:37.458Z,22.30
2023-04-09T11:22:39.891Z,22.63
2023-04-09T11:23:43.308Z,18.63
2023-04-09T11:24:51.277Z,24.45
2023-04-09T11:25:54.433Z,22.67
2023-04-09T11:26:56.896Z,27.23
2023-04-09T11:28:03.582Z,24.58
2023-04-09T11:29:10.844Z,23.38
2023-04-09T11:30:13.370Z,22.55
2023-04-09T11:31:16.874Z,26.15
2023-04-09T11:32:19.424Z,19.83
2023-04-09T11:33:21.791Z,24.92
2023-04-09T11:34:28.427Z,20.17
2023-04-09T11:35:30.489Z,23.73
2023-04-09T11:36:34.995Z,21.65
2023-04-09T11:37:37.118Z,23.33
2023-04-09T11:38:39.368Z,22.08
2023-04-09T11:39:48.915Z,20.58
2023-04-09T11:40:51.684Z,20.58
2023-04-09T11:41:54.452Z,20.40
2023-04-09T11:42:57.024Z,21.13
2023-04-09T11:44:06.226Z,20.63
2023-04-09T11:46:10.877Z,25.63
2023-04-09T11:47:14.821Z,39.70
2023-04-09T11:48:18.883Z,23.42
2023-04-09T11:49:25.959Z,22.02
2023-04-09T11:50:28.504Z,19.25
2023-04-09T11:51:33.358Z,24.23
2023-04-09T11:52:38.630Z,20.40
2023-04-09T11:53:41.287Z,22.70
2023-04-09T11:54:48.375Z,24.77
2023-04-09T11:55:53.029Z,23.02
2023-04-09T11:56:56.235Z,22.40
2023-04-09T11:58:01.378Z,21.27
2023-04-09T11:59:04.770Z,19.27
2023-04-09T12:00:12.485Z,21.13
2023-04-09T12:01:15.814Z,23.17
2023-04-09T12:02:19.376Z,24.30
2023-04-09T12:03:29.804Z,22.20
2023-04-09T12:04:34.157Z,22.75
2023-04-09T12:05:41.064Z,26.85
2023-04-09T12:06:44.266Z,22.80
2023-04-09T12:07:56.267Z,23.30
2023-04-09T12:09:00.143Z,22.33
2023-04-09T12:10:10.629Z,21.95
2023-04-09T12:11:17.058Z,23.33
2023-04-09T12:12:20.587Z,23.77
2023-04-09T12:13:32.740Z,20.40
2023-04-09T12:14:35.104Z,20.83
2023-04-09T12:15:41.562Z,22.35
2023-04-09T12:16:45.027Z,23.05
2023-04-09T12:17:49.429Z,21.40
2023-04-09T12:18:56.066Z,23.58
2023-04-09T12:19:57.974Z,21.00
2023-04-09T12:21:03.656Z,24.27
2023-04-09T12:22:05.709Z,20.35
2023-04-09T12:23:08.795Z,22.23
2023-04-09T12:24:11.025Z,23.42
2023-04-09T12:25:13.083Z,25.10
2023-04-09T12:26:22.821Z,22.70
2023-04-09T12:27:24.896Z,27.05
2023-04-09T12:28:27.719Z,30.58
2023-04-09T12:29:33.444Z,21.67
2023-04-09T12:30:36.371Z,28.48
2023-04-09T12:31:38.492Z,20.80
2023-04-09T12:32:40.601Z,24.45
2023-04-09T12:33:43.206Z,24.15
2023-04-09T12:34:47.521Z,21.75
2023-04-09T12:35:50.486Z,21.38
2023-04-09T12:36:52.535Z,28.05
2023-04-09T12:37:57.269Z,20.52
2023-04-09T12:39:00.944Z,23.92
2023-04-09T12:40:05.470Z,23.95
2023-04-09T12:41:07.534Z,21.60
2023-04-09T12:42:12.492Z,26.25
2023-04-09T12:43:17.029Z,20.10
2023-04-09T12:44:22.584Z,23.25
2023-04-09T12:45:25.646Z,18.08
2023-04-09T12:46:28.924Z,26.08
2023-04-09T12:47:30.947Z,21.75
2023-04-09T12:48:33.859Z,24.63
2023-04-09T12:49:36.071Z,22.58
2023-04-09T12:50:38.499Z,24.83
2023-04-09T12:51:40.469Z,23.98
2023-04-09T12:52:43.110Z,20.00
2023-04-09T12:53:47.771Z,19.95
2023-04-09T12:54:56.156Z,22.65
2023-04-09T12:55:58.835Z,20.50
2023-04-09T12:57:01.117Z,19.98
2023-04-09T12:58:03.258Z,24.15
2023-04-09T12:59:10.296Z,18.70
2023-04-09T13:00:16.327Z,19.70
2023-04-09T13:01:19.501Z,21.20
2023-04-09T13:02:26.878Z,24.20
2023-04-09T13:03:29.746Z,19.77
2023-04-09T13:04:38.975Z,21.33
2023-04-09T13:05:40.966Z,19.75
2023-04-09T13:06:45.406Z,21.92
2023-04-09T13:07:48.239Z,21.08
2023-04-09T13:10:32.216Z,25.70
2023-04-09T13:11:34.357Z,35.80
2023-04-09T13:13:55.568Z,25.30
2023-04-09T13:15:08.028Z,25.77
2023-04-09T13:16:10.505Z,36.75
2023-04-09T13:18:31.469Z,29.58
2023-04-09T13:19:43.350Z,24.92
2023-04-09T13:20:48.641Z,101.05
2023-04-09T13:21:55.211Z,38.63
2023-04-09T13:22:59.885Z,42.03
2023-04-09T13:24:03.930Z,20.77
2023-04-09T13:25:10.724Z,23.80
2023-04-09T13:26:14.365Z,20.75
2023-04-09T13:27:16.699Z,19.92
2023-04-09T13:28:29.798Z,20.55
2023-04-09T13:30:08.118Z,20.42
2023-04-09T13:31:14.934Z,25.58
2023-04-09T13:32:18.398Z,28.55
2023-04-09T13:33:21.342Z,20.45
2023-04-09T13:34:25.417Z,24.30
2023-04-09T13:35:28.277Z,24.75
2023-04-09T13:36:31.879Z,20.00
2023-04-09T13:37:34.411Z,20.83
2023-04-09T13:38:36.701Z,20.90
2023-04-09T13:39:38.938Z,20.08
2023-04-09T13:40:41.312Z,20.15
2023-04-09T13:41:44.411Z,23.48
2023-04-09T13:42:46.415Z,19.65
2023-04-09T13:43:48.417Z,21.38
2023-04-09T13:44:50.738Z,21.63
2023-04-09T13:45:54.144Z,22.83
2023-04-09T13:46:59.340Z,23.00
2023-04-09T13:48:01.374Z,19.20
2023-04-09T13:49:06.050Z,23.92
2023-04-09T13:50:11.303Z,22.33
2023-04-09T13:51:13.308Z,24.48
2023-04-09T13:52:16.343Z,22.42
2023-04-09T13:53:18.570Z,20.10
2023-04-09T13:54:20.764Z,23.42
2023-04-09T13:55:22.860Z,19.80
2023-04-09T13:56:26.513Z,21.73
2023-04-09T13:57:28.543Z,24.77
2023-04-09T13:58:30.883Z,36.45
2023-04-09T13:59:33.121Z,32.67
2023-04-09T14:00:36.531Z,25.77
2023-04-09T14:01:38.821Z,25.90
2023-04-09T14:02:41.306Z,20.13
2023-04-09T14:03:45.380Z,25.15
2023-04-09T14:04:47.811Z,23.60
2023-04-09T14:05:49.858Z,26.45
2023-04-09T14:06:51.940Z,38.42
2023-04-09T14:07:54.440Z,26.90
2023-04-09T14:08:57.272Z,28.20
2023-04-09T14:10:02.023Z,25.02
2023-04-09T14:11:04.309Z,22.40
2023-04-09T14:12:06.589Z,20.60
2023-04-09T14:13:14.196Z,24.98
2023-04-09T14:14:16.819Z,31.83
2023-04-09T14:15:19.531Z,19.73
2023-04-09T14:16:30.213Z,23.63
2023-04-09T14:17:34.379Z,22.00
2023-04-09T14:18:48.867Z,21.33
2023-04-09T14:21:11.086Z,21.95
2023-04-09T14:22:18.198Z,23.63
2023-04-09T14:23:20.403Z,28.90
2023-04-09T14:24:30.376Z,23.40
2023-04-09T14:25:40.100Z,24.60
2023-04-09T14:27:59.187Z,21.85
2023-04-09T14:29:01.567Z,22.95
2023-04-09T14:43:12.716Z,25.30
2023-04-09T14:44:19.593Z,27.33
2023-04-09T14:45:22.434Z,32.75
2023-04-09T14:55:50.176Z,27.30
2023-04-09T14:56:59.371Z,31.02
2023-04-09T14:58:08.852Z,23.95
2023-04-09T14:59:12.585Z,25.50
2023-04-09T15:00:15.723Z,36.58
2023-04-09T15:01:22.575Z,25.55
2023-04-09T15:02:27.144Z,24.90
2023-04-09T15:03:30.123Z,20.77
2023-04-09T15:04:47.375Z,23.67
2023-04-09T15:05:49.337Z,22.48
2023-04-09T15:06:51.570Z,25.17
2023-04-09T15:09:12.359Z,31.17
2023-04-09T15:12:48.490Z,32.30
2023-04-09T15:15:09.945Z,37.50
2023-04-09T15:17:41.788Z,34.45
2023-04-09T15:18:52.940Z,34.40
2023-04-09T15:22:14.542Z,30.47
2023-04-09T15:23:16.737Z,24.05
2023-04-09T15:24:19.157Z,28.88
2023-04-09T15:25:21.433Z,23.50
2023-04-09T15:26:24.441Z,26.85
2023-04-09T15:27:31.347Z,28.05
2023-04-09T15:28:33.787Z,94.22
2023-04-09T15:29:44.389Z,94.57
2023-04-09T15:30:47.007Z,60.83
2023-04-09T15:35:36.548Z,22.80
2023-04-09T15:48:05.659Z,31.45
2023-04-09T15:49:17.026Z,26.20
2023-04-09T15:50:19.658Z,28.17
2023-04-09T15:51:21.832Z,24.88
2023-04-09T15:52:25.948Z,22.58
2023-04-09T15:53:33.469Z,27.90
2023-04-09T17:34:09.583Z,30.30
2023-04-09T17:35:52.768Z,33.58
2023-04-09T17:37:05.508Z,32.53
2023-04-09T17:38:10.845Z,61.38
2023-04-09T17:39:16.365Z,59.42
2023-04-09T17:43:08.380Z,33.00
2023-04-09T17:44:15.665Z,30.33
2023-04-09T17:51:36.387Z,29.65
2023-04-09T18:22:10.672Z,27.90
2023-04-09T18:32:59.959Z,27.85
2023-04-09T18:34:06.179Z,36.95
2023-04-09T18:35:26.030Z,26.80
2023-04-09T18:46:42.490Z,35.72
2023-04-09T18:55:51.370Z,32.75
2023-04-09T18:57:21.847Z,29.40
2023-04-09T18:58:31.934Z,27.80
2023-04-09T18:59:37.372Z,33.85
2023-04-09T19:01:04.993Z,30.25
2023-04-09T19:03:58.822Z,29.33
2023-04-09T19:05:08.026Z,28.05
2023-04-09T19:11:22.495Z,29.88
2023-04-09T19:12:31.979Z,35.92
2023-04-09T19:13:47.705Z,25.77
2023-04-09T19:15:08.904Z,26.83
2023-04-09T19:19:13.889Z,27.60
2023-04-09T19:24:19.564Z,27.42
2023-04-09T19:29:25.058Z,28.23
2023-04-09T19:31:25.019Z,25.83
2023-04-09T19:39:06.711Z,25.97
2023-04-09T19:44:15.176Z,23.50
2023-04-09T19:49:02.866Z,22.83
2023-04-09T19:53:48.185Z,25.58
2023-04-09T19:55:21.367Z,27.48
2023-04-09T19:56:56.941Z,22.58
2023-04-09T20:01:34.911Z,27.95
2023-04-09T20:07:36.073Z,30.20
2023-04-09T20:10:03.101Z,28.67
2023-04-09T20:14:07.136Z,27.13
2023-04-09T20:15:42.370Z,28.90
2023-04-09T20:16:56.280Z,28.83
2023-04-09T20:18:07.456Z,28.92
2023-04-09T20:19:21.010Z,25.90
2023-04-09T20:21:49.083Z,31.63
2023-04-09T20:23:03.464Z,42.00
2023-04-09T20:24:27.084Z,32.08
2023-04-09T20:25:47.715Z,39.00
2023-04-09T20:26:54.694Z,36.60
2023-04-09T20:28:27.514Z,28.63
2023-04-09T20:30:02.383Z,36.60
2023-04-09T20:33:53.975Z,31.02
2023-04-09T20:43:06.398Z,34.35
2023-04-09T20:55:20.746Z,34.13
2023-04-09T20:56:42.840Z,36.78
2023-04-09T20:58:20.926Z,34.13
2023-04-09T20:59:50.681Z,30.10
2023-04-09T21:02:13.569Z,32.80
2023-04-09T21:03:48.083Z,32.37
2023-04-09T21:05:08.534Z,35.72
2023-04-09T21:13:54.998Z,38.85
2023-04-09T21:15:08.870Z,43.28
2023-04-09T21:21:43.084Z,57.13
2023-04-09T21:22:48.143Z,35.38
2023-04-09T21:24:01.859Z,35.13
2023-04-09T21:27:46.090Z,33.63
2023-04-09T21:28:50.991Z,36.83
2023-04-09T21:29:54.897Z,37.00
2023-04-09T21:31:04.503Z,36.45
2023-04-09T21:32:08.458Z,35.20
2023-04-09T21:33:13.681Z,36.05
2023-04-09T21:34:17.618Z,37.15
2023-04-09T21:35:21.935Z,32.83
2023-04-09T21:40:26.011Z,44.22
2023-04-09T21:42:00.241Z,31.13
2023-04-09T21:43:09.030Z,34.63
2023-04-09T21:44:13.787Z,38.67
2023-04-09T21:45:22.507Z,41.85
2023-04-09T21:46:53.697Z,36.38
2023-04-09T21:47:58.083Z,38.45
2023-04-09T21:49:01.921Z,44.95
2023-04-09T21:50:21.432Z,40.00
2023-04-09T21:51:56.293Z,42.40
2023-04-09T21:53:03.953Z,35.47
2023-04-09T21:54:14.486Z,39.10
2023-04-09T21:55:18.333Z,41.53
2023-04-09T21:56:24.141Z,41.50
2023-04-09T21:57:34.349Z,41.30
2023-04-09T21:58:42.955Z,47.63
2023-04-09T21:59:53.969Z,36.95
2023-04-09T22:01:49.920Z,38.83
2023-04-09T22:03:17.686Z,39.83
2023-04-09T22:04:49.358Z,34.72
2023-04-09T22:07:08.768Z,51.55
2023-04-09T22:10:47.729Z,45.67
2023-04-09T22:16:48.301Z,51.13
2023-04-09T22:21:41.824Z,39.00
2023-04-09T22:22:57.637Z,45.72
